sensor_id;sensor_type;location;lat;lon;timestamp;P1;durP1;ratioP1;P2;durP2;ratioP2
79454;SDS011;68900;52.134;5.420;2024-02-16T00:00:35;6.60;;;1.98;;
79454;SDS011;68900;52.134;5.420;2024-02-16T00:03:05;7.53;;;1.80;;
79454;SDS011;68900;52.134;5.420;2024-02-16T00:05:32;3.97;;;1.50;;
79454;SDS011;68900;52.134;5.420;2024-02-16T00:07:58;4.90;;;2.08;;
79454;SDS011;68900;52.134;5.420;2024-02-16T00:10:25;6.10;;;1.88;;
79454;SDS011;68900;52.134;5.420;2024-02-16T00:12:51;5.25;;;1.90;;
79454;SDS011;68900;52.134;5.420;2024-02-16T00:15:18;6.88;;;2.10;;
79454;SDS011;68900;52.134;5.420;2024-02-16T00:17:45;4.22;;;1.83;;
79454;SDS011;68900;52.134;5.420;2024-02-16T00:20:11;6.30;;;1.95;;
79454;SDS011;68900;52.134;5.420;2024-02-16T00:22:41;5.22;;;1.90;;
79454;SDS011;68900;52.134;5.420;2024-02-16T00:25:07;4.88;;;1.85;;
79454;SDS011;68900;52.134;5.420;2024-02-16T00:27:34;5.00;;;2.05;;
79454;SDS011;68900;52.134;5.420;2024-02-16T00:30:00;4.60;;;2.00;;
79454;SDS011;68900;52.134;5.420;2024-02-16T00:32:28;5.30;;;2.00;;
79454;SDS011;68900;52.134;5.420;2024-02-16T00:34:57;5.45;;;2.17;;
79454;SDS011;68900;52.134;5.420;2024-02-16T00:37:23;5.03;;;2.17;;
79454;SDS011;68900;52.134;5.420;2024-02-16T00:39:50;5.22;;;2.05;;
79454;SDS011;68900;52.134;5.420;2024-02-16T00:42:18;5.55;;;2.10;;
79454;SDS011;68900;52.134;5.420;2024-02-16T00:44:45;5.75;;;2.00;;
79454;SDS011;68900;52.134;5.420;2024-02-16T00:47:12;4.38;;;1.90;;
79454;SDS011;68900;52.134;5.420;2024-02-16T00:49:40;6.85;;;1.70;;
79454;SDS011;68900;52.134;5.420;2024-02-16T00:52:07;6.22;;;2.10;;
79454;SDS011;68900;52.134;5.420;2024-02-16T00:54:35;7.75;;;1.88;;
79454;SDS011;68900;52.134;5.420;2024-02-16T00:57:01;6.38;;;2.35;;
79454;SDS011;68900;52.134;5.420;2024-02-16T00:59:29;5.22;;;1.77;;
79454;SDS011;68900;52.134;5.420;2024-02-16T01:01:56;4.10;;;1.90;;
79454;SDS011;68900;52.134;5.420;2024-02-16T01:04:23;4.80;;;1.95;;
79454;SDS011;68900;52.134;5.420;2024-02-16T01:06:49;6.10;;;1.80;;
79454;SDS011;68900;52.134;5.420;2024-02-16T01:09:16;5.65;;;1.67;;
79454;SDS011;68900;52.134;5.420;2024-02-16T01:11:42;5.95;;;1.95;;
79454;SDS011;68900;52.134;5.420;2024-02-16T01:14:09;6.55;;;2.00;;
79454;SDS011;68900;52.134;5.420;2024-02-16T01:16:35;4.82;;;1.77;;
79454;SDS011;68900;52.134;5.420;2024-02-16T01:19:02;5.32;;;2.17;;
79454;SDS011;68900;52.134;5.420;2024-02-16T01:21:28;4.40;;;2.00;;
79454;SDS011;68900;52.134;5.420;2024-02-16T01:23:59;5.30;;;1.95;;
79454;SDS011;68900;52.134;5.420;2024-02-16T01:26:27;5.40;;;2.13;;
79454;SDS011;68900;52.134;5.420;2024-02-16T01:28:54;7.22;;;1.95;;
79454;SDS011;68900;52.134;5.420;2024-02-16T01:31:20;7.88;;;2.25;;
79454;SDS011;68900;52.134;5.420;2024-02-16T01:33:47;4.90;;;2.10;;
79454;SDS011;68900;52.134;5.420;2024-02-16T01:36:13;5.10;;;2.20;;
79454;SDS011;68900;52.134;5.420;2024-02-16T01:38:40;7.90;;;2.40;;
79454;SDS011;68900;52.134;5.420;2024-02-16T01:41:06;6.50;;;2.03;;
79454;SDS011;68900;52.134;5.420;2024-02-16T01:43:35;6.38;;;2.00;;
79454;SDS011;68900;52.134;5.420;2024-02-16T01:46:01;4.32;;;1.98;;
79454;SDS011;68900;52.134;5.420;2024-02-16T01:48:27;4.45;;;1.85;;
79454;SDS011;68900;52.134;5.420;2024-02-16T01:50:55;8.10;;;2.55;;
79454;SDS011;68900;52.134;5.420;2024-02-16T01:53:22;6.65;;;2.25;;
79454;SDS011;68900;52.134;5.420;2024-02-16T01:55:49;5.95;;;2.33;;
79454;SDS011;68900;52.134;5.420;2024-02-16T01:58:16;7.18;;;2.03;;
79454;SDS011;68900;52.134;5.420;2024-02-16T02:00:43;5.50;;;1.92;;
79454;SDS011;68900;52.134;5.420;2024-02-16T02:03:09;6.03;;;2.08;;
79454;SDS011;68900;52.134;5.420;2024-02-16T02:05:46;5.10;;;1.92;;
79454;SDS011;68900;52.134;5.420;2024-02-16T02:08:13;6.97;;;2.22;;
79454;SDS011;68900;52.134;5.420;2024-02-16T02:10:40;8.13;;;2.20;;
79454;SDS011;68900;52.134;5.420;2024-02-16T02:13:06;6.55;;;2.00;;
79454;SDS011;68900;52.134;5.420;2024-02-16T02:15:33;4.75;;;2.10;;
79454;SDS011;68900;52.134;5.420;2024-02-16T02:18:04;5.28;;;1.98;;
79454;SDS011;68900;52.134;5.420;2024-02-16T02:20:31;6.97;;;2.72;;
79454;SDS011;68900;52.134;5.420;2024-02-16T02:22:57;6.22;;;1.90;;
79454;SDS011;68900;52.134;5.420;2024-02-16T02:25:24;5.28;;;2.17;;
79454;SDS011;68900;52.134;5.420;2024-02-16T02:27:55;6.32;;;2.45;;
79454;SDS011;68900;52.134;5.420;2024-02-16T02:30:22;4.80;;;2.00;;
79454;SDS011;68900;52.134;5.420;2024-02-16T02:32:52;5.40;;;2.00;;
79454;SDS011;68900;52.134;5.420;2024-02-16T02:35:18;6.18;;;1.92;;
79454;SDS011;68900;52.134;5.420;2024-02-16T02:37:45;6.38;;;2.10;;
79454;SDS011;68900;52.134;5.420;2024-02-16T02:40:11;5.88;;;1.80;;
79454;SDS011;68900;52.134;5.420;2024-02-16T02:42:38;7.15;;;2.30;;
79454;SDS011;68900;52.134;5.420;2024-02-16T02:45:04;7.55;;;2.33;;
79454;SDS011;68900;52.134;5.420;2024-02-16T02:47:32;5.82;;;1.98;;
79454;SDS011;68900;52.134;5.420;2024-02-16T02:49:58;5.45;;;2.00;;
79454;SDS011;68900;52.134;5.420;2024-02-16T02:52:25;5.50;;;2.25;;
79454;SDS011;68900;52.134;5.420;2024-02-16T02:54:52;5.22;;;2.30;;
79454;SDS011;68900;52.134;5.420;2024-02-16T02:57:18;7.03;;;2.22;;
79454;SDS011;68900;52.134;5.420;2024-02-16T02:59:45;4.97;;;2.25;;
79454;SDS011;68900;52.134;5.420;2024-02-16T03:02:11;7.03;;;2.20;;
79454;SDS011;68900;52.134;5.420;2024-02-16T03:04:38;5.30;;;1.98;;
79454;SDS011;68900;52.134;5.420;2024-02-16T03:07:04;4.53;;;2.00;;
79454;SDS011;68900;52.134;5.420;2024-02-16T03:09:31;5.97;;;2.05;;
79454;SDS011;68900;52.134;5.420;2024-02-16T03:11:58;6.93;;;1.80;;
79454;SDS011;68900;52.134;5.420;2024-02-16T03:14:24;5.72;;;1.90;;
79454;SDS011;68900;52.134;5.420;2024-02-16T03:16:50;4.63;;;2.20;;
79454;SDS011;68900;52.134;5.420;2024-02-16T03:19:17;6.82;;;2.30;;
79454;SDS011;68900;52.134;5.420;2024-02-16T03:21:44;4.75;;;1.98;;
79454;SDS011;68900;52.134;5.420;2024-02-16T03:24:13;5.72;;;2.00;;
79454;SDS011;68900;52.134;5.420;2024-02-16T03:26:39;5.18;;;1.98;;
79454;SDS011;68900;52.134;5.420;2024-02-16T03:29:08;6.32;;;2.03;;
79454;SDS011;68900;52.134;5.420;2024-02-16T03:31:35;5.65;;;2.20;;
79454;SDS011;68900;52.134;5.420;2024-02-16T03:34:02;5.25;;;1.92;;
79454;SDS011;68900;52.134;5.420;2024-02-16T03:36:28;5.47;;;2.03;;
79454;SDS011;68900;52.134;5.420;2024-02-16T03:38:57;5.07;;;2.20;;
79454;SDS011;68900;52.134;5.420;2024-02-16T03:41:23;5.88;;;2.17;;
79454;SDS011;68900;52.134;5.420;2024-02-16T03:43:50;5.10;;;2.00;;
79454;SDS011;68900;52.134;5.420;2024-02-16T03:46:17;5.85;;;2.10;;
79454;SDS011;68900;52.134;5.420;2024-02-16T03:48:43;6.35;;;2.22;;
79454;SDS011;68900;52.134;5.420;2024-02-16T03:51:11;5.30;;;2.00;;
79454;SDS011;68900;52.134;5.420;2024-02-16T03:53:38;6.30;;;2.65;;
79454;SDS011;68900;52.134;5.420;2024-02-16T03:56:05;8.32;;;2.38;;
79454;SDS011;68900;52.134;5.420;2024-02-16T03:58:33;4.57;;;1.92;;
79454;SDS011;68900;52.134;5.420;2024-02-16T04:01:00;6.63;;;2.20;;
79454;SDS011;68900;52.134;5.420;2024-02-16T04:03:26;6.43;;;1.90;;
79454;SDS011;68900;52.134;5.420;2024-02-16T04:05:53;6.90;;;1.90;;
79454;SDS011;68900;52.134;5.420;2024-02-16T04:08:20;6.13;;;2.13;;
79454;SDS011;68900;52.134;5.420;2024-02-16T04:10:47;4.95;;;2.05;;
79454;SDS011;68900;52.134;5.420;2024-02-16T04:13:13;7.70;;;2.20;;
79454;SDS011;68900;52.134;5.420;2024-02-16T04:18:09;5.00;;;2.13;;
79454;SDS011;68900;52.134;5.420;2024-02-16T04:20:36;6.35;;;2.15;;
79454;SDS011;68900;52.134;5.420;2024-02-16T04:23:04;5.45;;;2.13;;
79454;SDS011;68900;52.134;5.420;2024-02-16T04:25:30;4.85;;;1.90;;
79454;SDS011;68900;52.134;5.420;2024-02-16T04:27:57;5.30;;;2.30;;
79454;SDS011;68900;52.134;5.420;2024-02-16T04:30:23;5.85;;;2.00;;
79454;SDS011;68900;52.134;5.420;2024-02-16T04:32:50;7.45;;;2.15;;
79454;SDS011;68900;52.134;5.420;2024-02-16T04:35:16;7.90;;;2.30;;
79454;SDS011;68900;52.134;5.420;2024-02-16T04:37:43;5.50;;;2.03;;
79454;SDS011;68900;52.134;5.420;2024-02-16T04:40:10;7.95;;;2.20;;
79454;SDS011;68900;52.134;5.420;2024-02-16T04:42:38;5.88;;;2.40;;
79454;SDS011;68900;52.134;5.420;2024-02-16T04:45:07;5.50;;;2.20;;
79454;SDS011;68900;52.134;5.420;2024-02-16T04:47:37;7.63;;;2.00;;
79454;SDS011;68900;52.134;5.420;2024-02-16T04:50:05;5.93;;;1.90;;
79454;SDS011;68900;52.134;5.420;2024-02-16T04:52:36;6.10;;;2.47;;
79454;SDS011;68900;52.134;5.420;2024-02-16T04:55:04;5.93;;;2.38;;
79454;SDS011;68900;52.134;5.420;2024-02-16T04:57:34;5.60;;;2.10;;
79454;SDS011;68900;52.134;5.420;2024-02-16T05:00:02;5.07;;;2.10;;
79454;SDS011;68900;52.134;5.420;2024-02-16T05:02:29;7.13;;;2.50;;
79454;SDS011;68900;52.134;5.420;2024-02-16T05:04:55;6.20;;;2.22;;
79454;SDS011;68900;52.134;5.420;2024-02-16T05:07:23;5.95;;;2.15;;
79454;SDS011;68900;52.134;5.420;2024-02-16T05:09:50;5.18;;;1.83;;
79454;SDS011;68900;52.134;5.420;2024-02-16T05:12:16;6.88;;;2.30;;
79454;SDS011;68900;52.134;5.420;2024-02-16T05:14:47;5.53;;;2.38;;
79454;SDS011;68900;52.134;5.420;2024-02-16T05:17:15;5.22;;;2.17;;
79454;SDS011;68900;52.134;5.420;2024-02-16T05:22:10;9.30;;;2.70;;
79454;SDS011;68900;52.134;5.420;2024-02-16T05:24:37;6.38;;;2.13;;
79454;SDS011;68900;52.134;5.420;2024-02-16T05:27:05;6.72;;;2.50;;
79454;SDS011;68900;52.134;5.420;2024-02-16T05:29:31;5.03;;;2.30;;
79454;SDS011;68900;52.134;5.420;2024-02-16T05:31:58;5.78;;;2.58;;
79454;SDS011;68900;52.134;5.420;2024-02-16T05:34:24;5.50;;;2.20;;
79454;SDS011;68900;52.134;5.420;2024-02-16T05:36:52;4.68;;;1.95;;
79454;SDS011;68900;52.134;5.420;2024-02-16T05:39:21;6.30;;;2.33;;
79454;SDS011;68900;52.134;5.420;2024-02-16T05:41:53;6.50;;;2.25;;
79454;SDS011;68900;52.134;5.420;2024-02-16T05:44:20;6.53;;;2.40;;
79454;SDS011;68900;52.134;5.420;2024-02-16T05:46:46;5.47;;;2.30;;
79454;SDS011;68900;52.134;5.420;2024-02-16T05:49:16;4.82;;;2.30;;
79454;SDS011;68900;52.134;5.420;2024-02-16T05:51:43;5.70;;;2.30;;
79454;SDS011;68900;52.134;5.420;2024-02-16T05:54:27;6.38;;;2.40;;
79454;SDS011;68900;52.134;5.420;2024-02-16T05:56:54;8.43;;;2.75;;
79454;SDS011;68900;52.134;5.420;2024-02-16T05:59:21;6.05;;;2.38;;
79454;SDS011;68900;52.134;5.420;2024-02-16T06:01:51;6.30;;;2.35;;
79454;SDS011;68900;52.134;5.420;2024-02-16T06:04:17;5.38;;;2.30;;
79454;SDS011;68900;52.134;5.420;2024-02-16T06:06:44;6.70;;;2.25;;
79454;SDS011;68900;52.134;5.420;2024-02-16T06:09:11;7.57;;;2.42;;
79454;SDS011;68900;52.134;5.420;2024-02-16T06:11:37;5.63;;;2.30;;
79454;SDS011;68900;52.134;5.420;2024-02-16T06:14:05;5.93;;;2.03;;
79454;SDS011;68900;52.134;5.420;2024-02-16T06:16:32;6.47;;;2.40;;
79454;SDS011;68900;52.134;5.420;2024-02-16T06:18:58;6.82;;;2.45;;
79454;SDS011;68900;52.134;5.420;2024-02-16T06:21:25;6.38;;;2.58;;
79454;SDS011;68900;52.134;5.420;2024-02-16T06:23:52;4.63;;;2.05;;
79454;SDS011;68900;52.134;5.420;2024-02-16T06:26:18;5.40;;;2.40;;
79454;SDS011;68900;52.134;5.420;2024-02-16T06:28:46;6.10;;;2.22;;
79454;SDS011;68900;52.134;5.420;2024-02-16T06:31:13;8.85;;;2.53;;
79454;SDS011;68900;52.134;5.420;2024-02-16T06:33:43;5.72;;;2.30;;
79454;SDS011;68900;52.134;5.420;2024-02-16T06:36:10;5.10;;;2.40;;
79454;SDS011;68900;52.134;5.420;2024-02-16T06:38:36;6.50;;;2.38;;
79454;SDS011;68900;52.134;5.420;2024-02-16T06:41:03;5.32;;;2.08;;
79454;SDS011;68900;52.134;5.420;2024-02-16T06:43:30;5.85;;;2.33;;
79454;SDS011;68900;52.134;5.420;2024-02-16T06:45:57;5.43;;;2.00;;
79454;SDS011;68900;52.134;5.420;2024-02-16T06:48:24;5.90;;;2.17;;
79454;SDS011;68900;52.134;5.420;2024-02-16T06:50:51;6.05;;;2.28;;
79454;SDS011;68900;52.134;5.420;2024-02-16T06:53:18;6.13;;;2.30;;
79454;SDS011;68900;52.134;5.420;2024-02-16T06:55:50;6.05;;;2.10;;
79454;SDS011;68900;52.134;5.420;2024-02-16T06:58:17;7.38;;;2.70;;
79454;SDS011;68900;52.134;5.420;2024-02-16T07:00:44;5.75;;;2.30;;
79454;SDS011;68900;52.134;5.420;2024-02-16T07:03:10;7.20;;;2.65;;
79454;SDS011;68900;52.134;5.420;2024-02-16T07:05:37;7.07;;;2.47;;
79454;SDS011;68900;52.134;5.420;2024-02-16T07:08:05;5.85;;;2.65;;
79454;SDS011;68900;52.134;5.420;2024-02-16T07:10:35;8.52;;;2.20;;
79454;SDS011;68900;52.134;5.420;2024-02-16T07:13:02;5.85;;;2.25;;
79454;SDS011;68900;52.134;5.420;2024-02-16T07:15:30;8.38;;;2.13;;
79454;SDS011;68900;52.134;5.420;2024-02-16T07:17:56;4.80;;;1.92;;
79454;SDS011;68900;52.134;5.420;2024-02-16T07:20:27;6.55;;;2.30;;
79454;SDS011;68900;52.134;5.420;2024-02-16T07:22:54;5.75;;;2.13;;
79454;SDS011;68900;52.134;5.420;2024-02-16T07:25:20;6.90;;;2.22;;
79454;SDS011;68900;52.134;5.420;2024-02-16T07:27:47;6.65;;;2.10;;
79454;SDS011;68900;52.134;5.420;2024-02-16T07:30:13;6.45;;;1.98;;
79454;SDS011;68900;52.134;5.420;2024-02-16T07:32:49;5.43;;;2.45;;
79454;SDS011;68900;52.134;5.420;2024-02-16T07:35:19;5.90;;;2.63;;
79454;SDS011;68900;52.134;5.420;2024-02-16T07:37:48;10.07;;;2.10;;
79454;SDS011;68900;52.134;5.420;2024-02-16T07:40:18;5.45;;;2.10;;
79454;SDS011;68900;52.134;5.420;2024-02-16T07:42:44;7.90;;;2.45;;
79454;SDS011;68900;52.134;5.420;2024-02-16T07:45:12;9.30;;;2.63;;
79454;SDS011;68900;52.134;5.420;2024-02-16T07:47:40;4.75;;;2.35;;
79454;SDS011;68900;52.134;5.420;2024-02-16T07:50:08;6.97;;;2.38;;
79454;SDS011;68900;52.134;5.420;2024-02-16T07:52:36;7.53;;;2.42;;
79454;SDS011;68900;52.134;5.420;2024-02-16T07:55:05;6.57;;;2.75;;
79454;SDS011;68900;52.134;5.420;2024-02-16T07:57:32;5.05;;;2.28;;
79454;SDS011;68900;52.134;5.420;2024-02-16T07:59:59;5.78;;;2.53;;
79454;SDS011;68900;52.134;5.420;2024-02-16T08:02:25;5.78;;;2.30;;
79454;SDS011;68900;52.134;5.420;2024-02-16T08:04:52;6.78;;;2.28;;
79454;SDS011;68900;52.134;5.420;2024-02-16T08:07:18;8.75;;;2.90;;
79454;SDS011;68900;52.134;5.420;2024-02-16T08:09:48;6.10;;;2.40;;
79454;SDS011;68900;52.134;5.420;2024-02-16T08:12:18;7.63;;;2.53;;
79454;SDS011;68900;52.134;5.420;2024-02-16T08:14:48;5.35;;;2.20;;
79454;SDS011;68900;52.134;5.420;2024-02-16T08:17:15;6.15;;;2.30;;
79454;SDS011;68900;52.134;5.420;2024-02-16T08:19:51;7.32;;;2.35;;
79454;SDS011;68900;52.134;5.420;2024-02-16T08:22:20;9.15;;;2.40;;
79454;SDS011;68900;52.134;5.420;2024-02-16T08:24:47;6.45;;;2.30;;
79454;SDS011;68900;52.134;5.420;2024-02-16T08:27:16;7.13;;;2.65;;
79454;SDS011;68900;52.134;5.420;2024-02-16T08:29:43;7.30;;;2.53;;
79454;SDS011;68900;52.134;5.420;2024-02-16T08:32:10;6.18;;;2.60;;
79454;SDS011;68900;52.134;5.420;2024-02-16T08:34:40;6.55;;;3.05;;
79454;SDS011;68900;52.134;5.420;2024-02-16T08:37:07;6.50;;;2.53;;
79454;SDS011;68900;52.134;5.420;2024-02-16T08:39:37;6.43;;;2.30;;
79454;SDS011;68900;52.134;5.420;2024-02-16T08:42:07;7.05;;;2.70;;
79454;SDS011;68900;52.134;5.420;2024-02-16T08:44:38;5.28;;;2.20;;
79454;SDS011;68900;52.134;5.420;2024-02-16T08:47:06;6.65;;;2.42;;
79454;SDS011;68900;52.134;5.420;2024-02-16T08:49:33;7.13;;;2.38;;
79454;SDS011;68900;52.134;5.420;2024-02-16T08:52:01;7.43;;;2.63;;
79454;SDS011;68900;52.134;5.420;2024-02-16T08:54:28;7.68;;;3.40;;
79454;SDS011;68900;52.134;5.420;2024-02-16T08:56:54;9.13;;;2.42;;
79454;SDS011;68900;52.134;5.420;2024-02-16T08:59:24;9.00;;;2.78;;
79454;SDS011;68900;52.134;5.420;2024-02-16T09:01:51;7.10;;;2.58;;
79454;SDS011;68900;52.134;5.420;2024-02-16T09:04:17;7.25;;;3.10;;
79454;SDS011;68900;52.134;5.420;2024-02-16T09:06:45;7.72;;;3.13;;
79454;SDS011;68900;52.134;5.420;2024-02-16T09:09:12;9.73;;;2.90;;
79454;SDS011;68900;52.134;5.420;2024-02-16T09:11:44;7.95;;;2.90;;
79454;SDS011;68900;52.134;5.420;2024-02-16T09:14:11;6.57;;;2.88;;
79454;SDS011;68900;52.134;5.420;2024-02-16T09:16:37;8.23;;;2.63;;
79454;SDS011;68900;52.134;5.420;2024-02-16T09:19:04;7.43;;;2.60;;
79454;SDS011;68900;52.134;5.420;2024-02-16T09:21:31;6.85;;;2.70;;
79454;SDS011;68900;52.134;5.420;2024-02-16T09:23:58;7.88;;;2.72;;
79454;SDS011;68900;52.134;5.420;2024-02-16T09:26:27;8.98;;;3.13;;
79454;SDS011;68900;52.134;5.420;2024-02-16T09:28:57;7.65;;;3.30;;
79454;SDS011;68900;52.134;5.420;2024-02-16T09:31:24;8.82;;;3.50;;
79454;SDS011;68900;52.134;5.420;2024-02-16T09:33:51;8.88;;;3.05;;
79454;SDS011;68900;52.134;5.420;2024-02-16T09:36:18;8.75;;;3.58;;
79454;SDS011;68900;52.134;5.420;2024-02-16T09:38:45;7.82;;;3.10;;
79454;SDS011;68900;52.134;5.420;2024-02-16T09:41:12;8.65;;;3.08;;
79454;SDS011;68900;52.134;5.420;2024-02-16T09:43:39;8.82;;;3.15;;
79454;SDS011;68900;52.134;5.420;2024-02-16T09:46:07;7.85;;;3.33;;
79454;SDS011;68900;52.134;5.420;2024-02-16T09:48:34;7.28;;;3.05;;
79454;SDS011;68900;52.134;5.420;2024-02-16T09:51:02;6.57;;;3.20;;
79454;SDS011;68900;52.134;5.420;2024-02-16T09:53:29;10.02;;;3.47;;
79454;SDS011;68900;52.134;5.420;2024-02-16T09:55:56;7.22;;;3.40;;
79454;SDS011;68900;52.134;5.420;2024-02-16T09:58:23;9.35;;;3.38;;
79454;SDS011;68900;52.134;5.420;2024-02-16T10:00:53;7.40;;;3.47;;
79454;SDS011;68900;52.134;5.420;2024-02-16T10:03:28;9.00;;;3.90;;
79454;SDS011;68900;52.134;5.420;2024-02-16T10:06:06;10.32;;;3.65;;
79454;SDS011;68900;52.134;5.420;2024-02-16T10:08:35;7.88;;;3.42;;
79454;SDS011;68900;52.134;5.420;2024-02-16T10:11:15;7.30;;;3.75;;
79454;SDS011;68900;52.134;5.420;2024-02-16T10:13:42;9.25;;;3.60;;
79454;SDS011;68900;52.134;5.420;2024-02-16T10:16:10;7.95;;;3.40;;
79454;SDS011;68900;52.134;5.420;2024-02-16T10:18:38;10.18;;;3.78;;
79454;SDS011;68900;52.134;5.420;2024-02-16T10:21:08;9.55;;;3.72;;
79454;SDS011;68900;52.134;5.420;2024-02-16T10:23:34;8.73;;;3.70;;
79454;SDS011;68900;52.134;5.420;2024-02-16T10:26:09;7.20;;;3.45;;
79454;SDS011;68900;52.134;5.420;2024-02-16T10:28:35;8.52;;;3.47;;
79454;SDS011;68900;52.134;5.420;2024-02-16T10:31:02;9.40;;;3.70;;
79454;SDS011;68900;52.134;5.420;2024-02-16T10:33:31;9.43;;;3.22;;
79454;SDS011;68900;52.134;5.420;2024-02-16T10:35:58;8.65;;;3.75;;
79454;SDS011;68900;52.134;5.420;2024-02-16T10:38:29;10.98;;;4.47;;
79454;SDS011;68900;52.134;5.420;2024-02-16T10:40:56;8.60;;;3.53;;
79454;SDS011;68900;52.134;5.420;2024-02-16T10:43:26;9.68;;;4.22;;
79454;SDS011;68900;52.134;5.420;2024-02-16T10:45:53;8.88;;;3.60;;
79454;SDS011;68900;52.134;5.420;2024-02-16T10:48:22;10.25;;;3.78;;
79454;SDS011;68900;52.134;5.420;2024-02-16T10:50:49;9.85;;;3.83;;
79454;SDS011;68900;52.134;5.420;2024-02-16T10:53:27;9.23;;;4.32;;
79454;SDS011;68900;52.134;5.420;2024-02-16T10:56:00;8.82;;;3.97;;
79454;SDS011;68900;52.134;5.420;2024-02-16T10:58:27;8.32;;;4.03;;
79454;SDS011;68900;52.134;5.420;2024-02-16T11:00:56;10.38;;;4.38;;
79454;SDS011;68900;52.134;5.420;2024-02-16T11:03:24;8.43;;;4.57;;
79454;SDS011;68900;52.134;5.420;2024-02-16T11:05:52;9.68;;;4.40;;
79454;SDS011;68900;52.134;5.420;2024-02-16T11:08:20;9.95;;;4.63;;
79454;SDS011;68900;52.134;5.420;2024-02-16T11:13:27;8.98;;;4.50;;
79454;SDS011;68900;52.134;5.420;2024-02-16T11:18:25;8.98;;;4.90;;
79454;SDS011;68900;52.134;5.420;2024-02-16T11:23:29;7.95;;;4.13;;
79454;SDS011;68900;52.134;5.420;2024-02-16T11:26:00;8.85;;;4.70;;
79454;SDS011;68900;52.134;5.420;2024-02-16T11:28:28;9.40;;;4.75;;
79454;SDS011;68900;52.134;5.420;2024-02-16T11:30:59;12.85;;;5.07;;
79454;SDS011;68900;52.134;5.420;2024-02-16T11:33:28;8.02;;;4.50;;
79454;SDS011;68900;52.134;5.420;2024-02-16T11:35:57;9.73;;;4.70;;
79454;SDS011;68900;52.134;5.420;2024-02-16T11:38:25;11.02;;;5.35;;
79454;SDS011;68900;52.134;5.420;2024-02-16T11:43:24;12.68;;;5.25;;
79454;SDS011;68900;52.134;5.420;2024-02-16T11:45:52;10.30;;;4.90;;
79454;SDS011;68900;52.134;5.420;2024-02-16T11:48:22;10.90;;;4.85;;
79454;SDS011;68900;52.134;5.420;2024-02-16T11:50:58;9.93;;;5.03;;
79454;SDS011;68900;52.134;5.420;2024-02-16T11:53:26;10.93;;;4.75;;
79454;SDS011;68900;52.134;5.420;2024-02-16T11:56:01;9.63;;;4.75;;
79454;SDS011;68900;52.134;5.420;2024-02-16T11:58:28;10.73;;;4.82;;
79454;SDS011;68900;52.134;5.420;2024-02-16T12:00:56;9.18;;;4.65;;
79454;SDS011;68900;52.134;5.420;2024-02-16T12:03:29;11.30;;;5.13;;
79454;SDS011;68900;52.134;5.420;2024-02-16T12:05:57;9.82;;;5.35;;
79454;SDS011;68900;52.134;5.420;2024-02-16T12:10:58;9.38;;;4.65;;
79454;SDS011;68900;52.134;5.420;2024-02-16T12:13:24;11.30;;;4.82;;
79454;SDS011;68900;52.134;5.420;2024-02-16T12:15:51;11.13;;;5.32;;
79454;SDS011;68900;52.134;5.420;2024-02-16T12:18:25;11.63;;;5.10;;
79454;SDS011;68900;52.134;5.420;2024-02-16T12:20:56;10.40;;;4.70;;
79454;SDS011;68900;52.134;5.420;2024-02-16T12:23:25;11.77;;;5.03;;
79454;SDS011;68900;52.134;5.420;2024-02-16T12:25:52;11.10;;;4.63;;
79454;SDS011;68900;52.134;5.420;2024-02-16T12:28:21;8.82;;;4.28;;
79454;SDS011;68900;52.134;5.420;2024-02-16T12:30:50;10.63;;;4.22;;
79454;SDS011;68900;52.134;5.420;2024-02-16T12:33:17;7.93;;;4.00;;
79454;SDS011;68900;52.134;5.420;2024-02-16T12:35:43;9.70;;;4.13;;
79454;SDS011;68900;52.134;5.420;2024-02-16T12:38:13;8.52;;;4.10;;
79454;SDS011;68900;52.134;5.420;2024-02-16T12:40:43;7.65;;;3.78;;
79454;SDS011;68900;52.134;5.420;2024-02-16T12:43:09;5.93;;;2.55;;
79454;SDS011;68900;52.134;5.420;2024-02-16T12:45:37;6.05;;;2.47;;
79454;SDS011;68900;52.134;5.420;2024-02-16T12:48:03;4.68;;;2.03;;
79454;SDS011;68900;52.134;5.420;2024-02-16T12:50:31;5.50;;;2.20;;
79454;SDS011;68900;52.134;5.420;2024-02-16T12:52:57;4.72;;;2.13;;
79454;SDS011;68900;52.134;5.420;2024-02-16T12:55:29;5.07;;;1.77;;
79454;SDS011;68900;52.134;5.420;2024-02-16T12:57:56;4.70;;;1.90;;
79454;SDS011;68900;52.134;5.420;2024-02-16T13:00:24;5.10;;;1.95;;
79454;SDS011;68900;52.134;5.420;2024-02-16T13:02:51;5.50;;;1.90;;
79454;SDS011;68900;52.134;5.420;2024-02-16T13:05:23;4.70;;;1.60;;
79454;SDS011;68900;52.134;5.420;2024-02-16T13:07:50;4.50;;;1.75;;
79454;SDS011;68900;52.134;5.420;2024-02-16T13:10:16;5.20;;;2.10;;
79454;SDS011;68900;52.134;5.420;2024-02-16T13:12:45;3.80;;;1.60;;
79454;SDS011;68900;52.134;5.420;2024-02-16T13:15:11;4.43;;;2.00;;
79454;SDS011;68900;52.134;5.420;2024-02-16T13:17:53;5.07;;;1.70;;
79454;SDS011;68900;52.134;5.420;2024-02-16T13:20:20;4.95;;;1.80;;
79454;SDS011;68900;52.134;5.420;2024-02-16T13:22:47;4.05;;;1.73;;
79454;SDS011;68900;52.134;5.420;2024-02-16T13:25:14;4.80;;;1.80;;
79454;SDS011;68900;52.134;5.420;2024-02-16T13:27:42;3.97;;;1.80;;
79454;SDS011;68900;52.134;5.420;2024-02-16T13:30:14;5.13;;;1.83;;
79454;SDS011;68900;52.134;5.420;2024-02-16T13:32:41;5.32;;;1.80;;
79454;SDS011;68900;52.134;5.420;2024-02-16T13:35:10;4.90;;;1.75;;
79454;SDS011;68900;52.134;5.420;2024-02-16T13:37:37;10.32;;;2.03;;
79454;SDS011;68900;52.134;5.420;2024-02-16T13:40:04;4.72;;;1.92;;
79454;SDS011;68900;52.134;5.420;2024-02-16T13:42:33;3.90;;;1.63;;
79454;SDS011;68900;52.134;5.420;2024-02-16T13:45:00;4.40;;;1.70;;
79454;SDS011;68900;52.134;5.420;2024-02-16T13:47:27;4.00;;;1.70;;
79454;SDS011;68900;52.134;5.420;2024-02-16T13:49:54;3.92;;;1.73;;
79454;SDS011;68900;52.134;5.420;2024-02-16T13:52:23;3.58;;;1.40;;
79454;SDS011;68900;52.134;5.420;2024-02-16T13:54:53;5.57;;;1.42;;
79454;SDS011;68900;52.134;5.420;2024-02-16T13:57:20;4.15;;;1.50;;
79454;SDS011;68900;52.134;5.420;2024-02-16T13:59:47;3.95;;;1.42;;
79454;SDS011;68900;52.134;5.420;2024-02-16T14:02:14;3.50;;;1.35;;
79454;SDS011;68900;52.134;5.420;2024-02-16T14:04:40;3.92;;;1.55;;
79454;SDS011;68900;52.134;5.420;2024-02-16T14:07:10;4.55;;;1.48;;
79454;SDS011;68900;52.134;5.420;2024-02-16T14:09:36;4.70;;;1.42;;
79454;SDS011;68900;52.134;5.420;2024-02-16T14:12:03;3.72;;;1.50;;
79454;SDS011;68900;52.134;5.420;2024-02-16T14:14:30;5.18;;;1.75;;
79454;SDS011;68900;52.134;5.420;2024-02-16T14:17:03;4.95;;;1.70;;
79454;SDS011;68900;52.134;5.420;2024-02-16T14:19:31;6.50;;;1.75;;
79454;SDS011;68900;52.134;5.420;2024-02-16T14:21:58;4.43;;;1.58;;
79454;SDS011;68900;52.134;5.420;2024-02-16T14:24:24;5.70;;;1.90;;
79454;SDS011;68900;52.134;5.420;2024-02-16T14:26:51;4.72;;;1.77;;
79454;SDS011;68900;52.134;5.420;2024-02-16T14:31:47;4.75;;;1.98;;
79454;SDS011;68900;52.134;5.420;2024-02-16T14:34:15;4.78;;;2.08;;
79454;SDS011;68900;52.134;5.420;2024-02-16T14:36:42;5.90;;;2.28;;
79454;SDS011;68900;52.134;5.420;2024-02-16T14:39:09;5.93;;;2.45;;
79454;SDS011;68900;52.134;5.420;2024-02-16T14:41:37;4.72;;;1.90;;
79454;SDS011;68900;52.134;5.420;2024-02-16T14:44:03;5.10;;;2.33;;
79454;SDS011;68900;52.134;5.420;2024-02-16T14:46:30;5.95;;;2.38;;
79454;SDS011;68900;52.134;5.420;2024-02-16T14:49:14;6.25;;;2.22;;
79454;SDS011;68900;52.134;5.420;2024-02-16T14:51:47;7.13;;;2.30;;
79454;SDS011;68900;52.134;5.420;2024-02-16T14:54:18;4.85;;;2.28;;
79454;SDS011;68900;52.134;5.420;2024-02-16T14:56:45;7.55;;;2.10;;
79454;SDS011;68900;52.134;5.420;2024-02-16T14:59:12;6.13;;;2.08;;
79454;SDS011;68900;52.134;5.420;2024-02-16T15:01:39;4.72;;;2.13;;
79454;SDS011;68900;52.134;5.420;2024-02-16T15:04:06;4.88;;;2.20;;
79454;SDS011;68900;52.134;5.420;2024-02-16T15:06:32;5.15;;;2.40;;
79454;SDS011;68900;52.134;5.420;2024-02-16T15:08:59;6.15;;;2.10;;
79454;SDS011;68900;52.134;5.420;2024-02-16T15:11:26;7.63;;;2.30;;